createdAt,value
2023-02-15T00:02:04.104Z,101592.72
2023-02-15T00:04:51.033Z,101593.53
2023-02-15T00:07:19.858Z,101599.00
2023-02-15T00:09:47.894Z,101586.06
2023-02-15T00:12:16.233Z,101596.50
2023-02-15T00:14:43.832Z,101597.22
2023-02-15T00:17:11.624Z,101601.34
2023-02-15T00:19:38.979Z,101602.09
2023-02-15T00:22:06.523Z,101596.84
2023-02-15T00:24:34.151Z,101600.94
2023-02-15T00:27:01.528Z,101611.84
2023-02-15T00:29:29.104Z,101602.34
2023-02-15T00:31:56.809Z,101598.88
2023-02-15T00:34:26.745Z,101600.72
2023-02-15T00:36:54.256Z,101600.56
2023-02-15T00:39:22.290Z,101598.72
2023-02-15T00:41:49.728Z,101602.47
2023-02-15T00:44:17.212Z,101599.28
2023-02-15T00:46:44.949Z,101595.75
2023-02-15T00:49:13.101Z,101592.81
2023-02-15T00:51:40.632Z,101590.41
2023-02-15T00:54:09.029Z,101591.44
2023-02-15T00:56:36.493Z,101591.16
2023-02-15T00:59:04.720Z,101597.91
2023-02-15T01:01:32.482Z,101591.16
2023-02-15T01:04:00.064Z,101587.84
2023-02-15T01:06:30.656Z,101596.13
2023-02-15T01:08:58.430Z,101585.75
2023-02-15T01:11:25.826Z,101593.00
2023-02-15T01:13:58.154Z,101585.91
2023-02-15T01:16:27.856Z,101585.03
2023-02-15T01:18:58.393Z,101583.34
2023-02-15T01:21:27.070Z,101589.06
2023-02-15T01:23:54.762Z,101587.78
2023-02-15T01:26:22.121Z,101580.13
2023-02-15T01:28:49.855Z,101579.25
2023-02-15T01:31:19.917Z,101581.81
2023-02-15T01:33:49.779Z,101579.31
2023-02-15T01:36:18.337Z,101578.75
2023-02-15T01:38:46.401Z,101573.59
2023-02-15T01:41:27.223Z,101569.72
2023-02-15T01:43:57.456Z,101563.84
2023-02-15T01:46:41.944Z,101558.91
2023-02-15T01:49:11.021Z,101553.88
2023-02-15T01:51:39.292Z,101560.78
2023-02-15T01:54:25.523Z,101555.37
2023-02-15T01:56:54.121Z,101558.28
2023-02-15T01:59:23.169Z,101556.59
2023-02-15T02:01:52.477Z,101556.13
2023-02-15T02:04:25.978Z,101553.88
2023-02-15T02:06:54.438Z,101557.34
2023-02-15T02:09:22.084Z,101553.31
2023-02-15T02:11:50.731Z,101560.62
2023-02-15T02:14:19.197Z,101551.47
2023-02-15T02:16:58.532Z,101547.69
2023-02-15T02:19:45.005Z,101550.09
2023-02-15T02:22:24.312Z,101552.97
2023-02-15T02:25:13.035Z,101542.53
2023-02-15T02:27:51.037Z,101549.13
2023-02-15T02:30:33.365Z,101542.31
2023-02-15T02:33:15.914Z,101548.78
2023-02-15T02:36:04.173Z,101542.53
2023-02-15T02:38:56.812Z,101547.94
2023-02-15T02:41:27.346Z,101547.69
2023-02-15T02:44:22.897Z,101542.06
2023-02-15T02:46:59.793Z,101542.78
2023-02-15T02:49:34.950Z,101545.34
2023-02-15T02:52:05.585Z,101556.44
2023-02-15T02:54:35.729Z,101552.56
2023-02-15T02:57:06.770Z,101560.88
2023-02-15T02:59:38.934Z,101557.81
2023-02-15T03:02:14.011Z,101553.56
2023-02-15T03:04:59.322Z,101558.84
2023-02-15T03:07:29.763Z,101564.34
2023-02-15T03:10:00.151Z,101559.66
2023-02-15T03:12:29.181Z,101558.59
2023-02-15T03:15:01.683Z,101558.53
2023-02-15T03:17:32.463Z,101555.69
2023-02-15T03:20:05.489Z,101563.88
2023-02-15T03:22:38.365Z,101558.09
2023-02-15T03:25:12.701Z,101556.16
2023-02-15T03:27:45.386Z,101558.06
2023-02-15T03:30:12.888Z,101567.22
2023-02-15T03:32:41.057Z,101566.81
2023-02-15T03:35:08.805Z,101566.03
2023-02-15T03:37:42.998Z,101567.62
2023-02-15T03:40:39.524Z,101570.56
2023-02-15T03:43:39.784Z,101574.12
2023-02-15T03:46:15.359Z,101571.41
2023-02-15T03:48:50.544Z,101570.25
2023-02-15T03:51:37.173Z,101561.97
2023-02-15T03:54:14.386Z,101569.31
2023-02-15T03:57:03.050Z,101569.94
2023-02-15T03:59:49.105Z,101568.16
2023-02-15T04:02:22.599Z,101570.72
2023-02-15T04:04:50.599Z,101577.59
2023-02-15T04:07:18.037Z,101569.63
2023-02-15T04:10:03.610Z,101565.84
2023-02-15T04:12:32.086Z,101569.19
2023-02-15T04:15:18.142Z,101567.88
2023-02-15T04:17:45.854Z,101571.22
2023-02-15T04:20:31.726Z,101572.13
2023-02-15T04:23:17.873Z,101569.13
2023-02-15T04:25:45.249Z,101566.28
2023-02-15T04:28:12.916Z,101567.72
2023-02-15T04:30:40.299Z,101566.66
2023-02-15T04:33:07.650Z,101565.78
2023-02-15T04:35:35.314Z,101568.59
2023-02-15T04:38:02.793Z,101564.16
2023-02-15T04:40:30.221Z,101562.81
2023-02-15T04:42:57.835Z,101566.81
2023-02-15T04:45:25.244Z,101572.59
2023-02-15T04:47:52.669Z,101575.94
2023-02-15T04:50:20.380Z,101571.97
2023-02-15T04:52:47.907Z,101575.87
2023-02-15T04:55:15.438Z,101570.47
2023-02-15T04:57:43.116Z,101572.06
2023-02-15T05:00:10.926Z,101567.97
2023-02-15T05:02:38.710Z,101566.47
2023-02-15T05:05:06.754Z,101568.06
2023-02-15T05:07:34.116Z,101568.53
2023-02-15T05:10:01.466Z,101565.13
2023-02-15T05:12:29.124Z,101567.09
2023-02-15T05:14:56.470Z,101573.81
2023-02-15T05:17:23.809Z,101578.41
2023-02-15T05:19:51.516Z,101579.25
2023-02-15T05:22:18.929Z,101585.78
2023-02-15T05:25:04.693Z,101584.25
2023-02-15T05:27:51.054Z,101587.91
2023-02-15T05:30:18.725Z,101586.13
2023-02-15T05:32:46.542Z,101592.41
2023-02-15T05:35:16.093Z,101593.56
2023-02-15T05:37:43.564Z,101594.38
2023-02-15T05:40:11.743Z,101597.13
2023-02-15T05:42:39.209Z,101605.78
2023-02-15T05:45:07.365Z,101604.22
2023-02-15T05:47:35.280Z,101608.38
2023-02-15T05:50:02.707Z,101611.56
2023-02-15T05:52:30.190Z,101611.47
2023-02-15T05:54:59.028Z,101608.44
2023-02-15T05:57:26.474Z,101613.66
2023-02-15T05:59:53.886Z,101611.12
2023-02-15T06:02:21.632Z,101608.94
2023-02-15T06:04:49.402Z,101604.50
2023-02-15T06:07:16.790Z,101612.81
2023-02-15T06:09:44.156Z,101617.78
2023-02-15T06:12:11.816Z,101615.09
2023-02-15T06:14:39.180Z,101619.38
2023-02-15T06:17:06.597Z,101613.81
2023-02-15T06:19:34.244Z,101618.22
2023-02-15T06:22:01.640Z,101612.69
2023-02-15T06:24:29.079Z,101621.66
2023-02-15T06:26:56.817Z,101612.56
2023-02-15T06:29:24.262Z,101612.56
2023-02-15T06:31:51.639Z,101612.75
2023-02-15T06:34:19.474Z,101614.94
2023-02-15T06:36:47.098Z,101616.81
2023-02-15T06:39:14.594Z,101619.31
2023-02-15T06:41:42.527Z,101623.75
2023-02-15T06:44:09.954Z,101625.16
2023-02-15T06:46:37.470Z,101623.00
2023-02-15T06:49:05.107Z,101613.97
2023-02-15T06:51:32.498Z,101618.22
2023-02-15T06:53:59.855Z,101621.06
2023-02-15T06:56:27.566Z,101629.16
2023-02-15T06:58:54.982Z,101624.88
2023-02-15T07:01:22.512Z,101626.16
2023-02-15T07:03:50.663Z,101627.16
2023-02-15T07:06:18.117Z,101630.91
2023-02-15T07:08:45.601Z,101625.56
2023-02-15T07:11:31.757Z,101629.47
2023-02-15T07:13:59.239Z,101623.81
2023-02-15T07:16:27.003Z,101630.88
2023-02-15T07:18:54.485Z,101609.94
2023-02-15T07:21:21.891Z,101612.28
2023-02-15T07:23:49.530Z,101610.09
2023-02-15T07:26:16.880Z,101609.50
2023-02-15T07:28:44.312Z,101605.97
2023-02-15T07:31:12.071Z,101602.91
2023-02-15T07:33:39.711Z,101610.38
2023-02-15T07:36:07.635Z,101612.31
2023-02-15T07:38:37.490Z,101612.31
2023-02-15T07:41:10.128Z,101615.56
2023-02-15T07:43:39.681Z,101610.56
2023-02-15T07:46:10.842Z,101613.06
2023-02-15T07:48:39.724Z,101608.34
2023-02-15T07:51:09.182Z,101608.59
2023-02-15T07:53:36.905Z,101602.84
2023-02-15T07:56:07.268Z,101604.88
2023-02-15T07:58:53.383Z,101607.63
2023-02-15T08:01:30.591Z,101605.28
2023-02-15T08:04:01.223Z,101608.69
2023-02-15T08:06:31.139Z,101596.19
2023-02-15T08:08:58.897Z,101596.75
2023-02-15T08:11:34.545Z,101594.69
2023-02-15T08:14:12.353Z,101589.81
2023-02-15T08:16:51.010Z,101596.25
2023-02-15T08:19:21.509Z,101588.06
2023-02-15T08:21:54.517Z,101589.09
2023-02-15T08:24:24.063Z,101577.91
2023-02-15T08:26:52.593Z,101582.78
2023-02-15T08:29:23.429Z,101581.56
2023-02-15T08:31:54.356Z,101577.91
2023-02-15T08:34:22.266Z,101582.37
2023-02-15T08:36:49.635Z,101588.69
2023-02-15T08:39:17.699Z,101587.28
2023-02-15T08:41:46.802Z,101585.69
2023-02-15T08:44:16.309Z,101580.97
2023-02-15T08:46:45.446Z,101584.62
2023-02-15T08:49:14.755Z,101583.22
2023-02-15T08:51:42.670Z,101581.88
2023-02-15T08:54:13.597Z,101581.09
2023-02-15T08:56:42.500Z,101574.88
2023-02-15T08:59:22.058Z,101566.09
2023-02-15T09:01:51.472Z,101570.03
2023-02-15T09:04:19.546Z,101566.81
2023-02-15T09:06:49.238Z,101578.94
2023-02-15T09:09:18.225Z,101560.94
2023-02-15T09:11:47.916Z,101566.66
2023-02-15T09:14:17.567Z,101565.91
2023-02-15T09:16:55.387Z,101569.31
2023-02-15T09:19:23.976Z,101570.13
2023-02-15T09:21:52.393Z,101564.47
2023-02-15T09:24:19.973Z,101554.97
2023-02-15T09:26:49.088Z,101561.94
2023-02-15T09:29:18.030Z,101574.16
2023-02-15T09:31:50.931Z,101568.03
2023-02-15T09:34:21.443Z,101564.78
2023-02-15T09:36:49.569Z,101558.63
2023-02-15T09:39:19.765Z,101563.84
2023-02-15T09:41:56.327Z,101562.91
2023-02-15T09:44:26.562Z,101553.66
2023-02-15T09:47:18.087Z,101564.88
2023-02-15T09:50:24.310Z,101550.19
2023-02-15T09:53:00.709Z,101543.78
2023-02-15T09:55:52.439Z,101541.59
2023-02-15T09:58:22.938Z,101543.13
2023-02-15T10:01:11.248Z,101533.50
2023-02-15T10:03:47.989Z,101537.53
2023-02-15T10:06:45.311Z,101534.13
2023-02-15T10:09:31.786Z,101532.25
2023-02-15T10:12:44.087Z,101524.28
2023-02-15T10:15:20.156Z,101517.97
2023-02-15T10:18:01.582Z,101522.50
2023-02-15T10:20:31.906Z,101516.13
2023-02-15T10:23:04.280Z,101521.25
2023-02-15T10:26:03.168Z,101521.56
2023-02-15T10:28:43.450Z,101516.81
2023-02-15T10:31:24.533Z,101518.25
2023-02-15T10:34:15.455Z,101520.09
2023-02-15T10:37:27.717Z,101513.38
2023-02-15T10:40:21.663Z,101511.72
2023-02-15T10:42:55.395Z,101511.09
2023-02-15T10:45:22.860Z,101512.19
2023-02-15T10:47:56.195Z,101513.22
2023-02-15T10:50:51.722Z,101508.47
2023-02-15T10:53:40.440Z,101510.50
2023-02-15T10:56:16.651Z,101512.63
2023-02-15T10:58:51.839Z,101496.97
2023-02-15T11:01:34.246Z,101500.22
2023-02-15T11:04:39.753Z,101491.94
2023-02-15T11:07:17.658Z,101489.94
2023-02-15T11:09:50.040Z,101487.69
2023-02-15T11:12:21.489Z,101486.78
2023-02-15T11:14:54.099Z,101488.66
2023-02-15T11:17:35.198Z,101485.00
2023-02-15T11:20:20.137Z,101477.28
2023-02-15T11:22:51.875Z,101468.47
2023-02-15T11:25:33.492Z,101469.12
2023-02-15T11:28:05.381Z,101472.78
2023-02-15T11:30:47.628Z,101459.19
2023-02-15T11:33:23.402Z,101467.00
2023-02-15T11:36:18.157Z,101457.06
2023-02-15T11:38:47.307Z,101448.91
2023-02-15T11:41:20.108Z,101445.91
2023-02-15T11:43:54.972Z,101444.44
2023-02-15T11:46:22.901Z,101437.81
2023-02-15T11:48:50.785Z,101436.28
2023-02-15T11:51:22.090Z,101429.53
2023-02-15T11:53:52.706Z,101434.91
2023-02-15T11:56:23.530Z,101423.69
2023-02-15T11:59:10.320Z,101428.81
2023-02-15T12:01:42.320Z,101408.69
2023-02-15T12:04:40.318Z,101419.81
2023-02-15T12:07:18.770Z,101419.50
2023-02-15T12:09:57.571Z,101422.69
2023-02-15T12:12:29.316Z,101422.28
2023-02-15T12:15:01.862Z,101422.19
2023-02-15T12:17:32.018Z,101416.31
2023-02-15T12:20:26.362Z,101414.09
2023-02-15T12:23:04.643Z,101410.13
2023-02-15T12:25:48.666Z,101413.41
2023-02-15T12:28:34.117Z,101398.78
2023-02-15T12:31:05.125Z,101402.06
2023-02-15T12:33:41.978Z,101392.94
2023-02-15T12:36:45.538Z,101395.22
2023-02-15T12:39:26.658Z,101393.81
2023-02-15T12:41:57.086Z,101389.94
2023-02-15T12:44:27.791Z,101376.97
2023-02-15T12:47:10.719Z,101388.88
2023-02-15T12:49:38.950Z,101380.28
2023-02-15T12:52:25.072Z,101372.47
2023-02-15T12:54:53.007Z,101377.22
2023-02-15T12:57:27.757Z,101372.97
2023-02-15T13:00:01.615Z,101364.25
2023-02-15T13:02:41.879Z,101363.19
2023-02-15T13:05:20.813Z,101364.00
2023-02-15T13:07:55.810Z,101368.19
2023-02-15T13:10:27.225Z,101377.13
2023-02-15T13:12:57.543Z,101369.66
2023-02-15T13:15:33.645Z,101365.91
2023-02-15T13:18:05.696Z,101357.94
2023-02-15T13:20:35.448Z,101357.00
2023-02-15T13:23:14.859Z,101349.28
2023-02-15T13:25:51.077Z,101344.63
2023-02-15T13:28:21.685Z,101346.69
2023-02-15T13:30:50.274Z,101350.88
2023-02-15T13:33:27.347Z,101343.62
2023-02-15T13:36:10.700Z,101348.22
2023-02-15T13:38:59.812Z,101342.81
2023-02-15T13:41:50.104Z,101342.34
2023-02-15T13:44:42.055Z,101335.78
2023-02-15T13:47:33.470Z,101340.03
2023-02-15T13:50:28.458Z,101334.91
2023-02-15T13:53:08.610Z,101325.75
2023-02-15T13:55:39.274Z,101330.66
2023-02-15T13:58:25.582Z,101320.75
2023-02-15T14:01:16.787Z,101328.69
2023-02-15T14:03:57.262Z,101327.59
2023-02-15T14:06:47.827Z,101323.50
2023-02-15T14:09:37.820Z,101323.28
2023-02-15T14:12:24.633Z,101326.84
2023-02-15T14:15:16.696Z,101323.38
2023-02-15T14:18:05.308Z,101329.31
2023-02-15T14:20:58.196Z,101324.91
2023-02-15T14:23:43.277Z,101322.16
2023-02-15T14:26:32.915Z,101328.37
2023-02-15T14:29:22.225Z,101323.66
2023-02-15T14:31:59.715Z,101325.31
2023-02-15T14:34:42.517Z,101327.44
2023-02-15T14:37:13.089Z,101324.50
2023-02-15T14:40:22.177Z,101330.94
2023-02-15T14:43:09.745Z,101332.94
2023-02-15T14:45:50.583Z,101329.53
2023-02-15T14:48:46.417Z,101324.38
2023-02-15T14:51:52.626Z,101319.75
2023-02-15T14:54:23.158Z,101319.00
2023-02-15T14:57:03.202Z,101314.16
2023-02-15T14:59:59.791Z,101311.03
2023-02-15T15:02:41.978Z,101313.72
2023-02-15T15:05:18.661Z,101305.19
2023-02-15T15:07:54.714Z,101303.41
2023-02-15T15:10:22.278Z,101300.47
2023-02-15T15:12:54.053Z,101293.34
2023-02-15T15:15:27.819Z,101303.53
2023-02-15T15:17:56.833Z,101299.00
2023-02-15T15:20:28.198Z,101302.66
2023-02-15T15:23:15.202Z,101301.91
2023-02-15T15:25:54.806Z,101302.50
2023-02-15T15:28:34.665Z,101300.28
2023-02-15T15:31:21.570Z,101303.75
2023-02-15T15:34:24.803Z,101297.28
2023-02-15T15:37:10.832Z,101295.94
2023-02-15T15:39:38.038Z,101302.56
2023-02-15T15:42:49.043Z,101298.13
2023-02-15T15:45:44.751Z,101302.63
2023-02-15T15:48:34.303Z,101312.06
2023-02-15T15:51:12.665Z,101304.19
2023-02-15T15:53:43.645Z,101306.59
2023-02-15T15:56:18.066Z,101303.34
2023-02-15T15:58:50.318Z,101301.37
2023-02-15T16:01:18.680Z,101292.66
2023-02-15T16:03:51.358Z,101296.25
2023-02-15T16:06:48.221Z,101296.00
2023-02-15T16:09:25.519Z,101295.88
2023-02-15T16:12:02.615Z,101291.16
2023-02-15T16:14:33.562Z,101294.16
2023-02-15T16:17:03.670Z,101292.06
2023-02-15T16:19:38.545Z,101294.56
2023-02-15T16:22:14.038Z,101288.00
2023-02-15T16:24:50.761Z,101300.34
2023-02-15T16:27:24.124Z,101297.28
2023-02-15T16:29:55.202Z,101292.72
2023-02-15T16:32:27.305Z,101296.56
2023-02-15T16:35:00.258Z,101295.94
2023-02-15T16:37:32.815Z,101290.97
2023-02-15T16:40:00.908Z,101302.28
2023-02-15T16:42:29.080Z,101300.00
2023-02-15T16:45:14.085Z,101297.59
2023-02-15T16:47:45.524Z,101301.78
2023-02-15T16:50:21.998Z,101298.84
2023-02-15T16:52:50.517Z,101298.63
2023-02-15T16:55:26.904Z,101300.22
2023-02-15T16:58:01.321Z,101303.00
2023-02-15T17:00:32.528Z,101308.41
2023-02-15T17:03:03.261Z,101308.03
2023-02-15T17:05:45.669Z,101309.50
2023-02-15T17:08:17.564Z,101304.06
2023-02-15T17:10:47.682Z,101314.06
2023-02-15T17:13:18.810Z,101321.19
2023-02-15T17:16:01.695Z,101313.31
2023-02-15T17:18:34.805Z,101318.88
2023-02-15T17:21:10.673Z,101318.72
2023-02-15T17:23:43.758Z,101319.47
2023-02-15T17:26:25.719Z,101320.41
2023-02-15T17:28:57.190Z,101324.03
2023-02-15T17:31:29.541Z,101306.75
2023-02-15T17:33:59.258Z,101316.38
2023-02-15T17:36:30.532Z,101314.44
2023-02-15T17:38:58.204Z,101310.81
2023-02-15T17:41:26.913Z,101309.47
2023-02-15T17:43:54.315Z,101311.06
2023-02-15T17:46:24.767Z,101307.19
2023-02-15T17:48:54.906Z,101301.44
2023-02-15T17:51:22.912Z,101313.09
2023-02-15T17:54:09.138Z,101306.91
2023-02-15T17:56:38.347Z,101303.16
2023-02-15T17:59:10.248Z,101307.09
2023-02-15T18:02:03.040Z,101311.91
2023-02-15T18:04:49.892Z,101319.28
2023-02-15T18:07:36.750Z,101307.56
2023-02-15T18:10:34.806Z,101315.63
2023-02-15T18:13:02.266Z,101312.94
2023-02-15T18:15:30.098Z,101315.81
2023-02-15T18:17:57.532Z,101309.81
2023-02-15T18:20:34.753Z,101314.53
2023-02-15T18:23:02.845Z,101308.37
2023-02-15T18:25:30.271Z,101308.41
2023-02-15T18:27:57.663Z,101302.00
2023-02-15T18:30:28.262Z,101307.19
2023-02-15T18:32:57.280Z,101303.78
2023-02-15T18:35:27.181Z,101302.72
2023-02-15T18:37:54.844Z,101309.91
2023-02-15T18:40:25.640Z,101306.56
2023-02-15T18:42:53.647Z,101309.91
2023-02-15T18:45:28.488Z,101308.16
2023-02-15T18:47:56.195Z,101304.19
2023-02-15T18:50:25.031Z,101305.78
2023-02-15T18:52:52.387Z,101307.53
2023-02-15T18:55:25.901Z,101303.06
2023-02-15T18:57:54.937Z,101304.63
2023-02-15T19:00:25.269Z,101304.25
2023-02-15T19:02:53.929Z,101306.91
2023-02-15T19:05:22.507Z,101298.88
2023-02-15T19:07:50.805Z,101307.28
2023-02-15T19:10:23.261Z,101307.59
2023-02-15T19:12:52.454Z,101299.59
2023-02-15T19:15:25.470Z,101303.81
2023-02-15T19:17:53.829Z,101316.62
2023-02-15T19:20:27.123Z,101309.50
2023-02-15T19:22:56.176Z,101306.91
2023-02-15T19:25:32.061Z,101307.06
2023-02-15T19:28:00.242Z,101307.06
2023-02-15T19:30:30.517Z,101303.28
2023-02-15T19:32:59.429Z,101298.53
2023-02-15T19:35:30.087Z,101306.53
2023-02-15T19:37:59.902Z,101305.44
2023-02-15T19:40:30.771Z,101315.44
2023-02-15T19:42:58.379Z,101313.69
2023-02-15T19:45:29.072Z,101315.44
2023-02-15T19:47:57.390Z,101311.84
2023-02-15T19:50:27.024Z,101301.03
2023-02-15T19:52:54.728Z,101305.78
2023-02-15T19:55:24.298Z,101318.66
2023-02-15T19:57:53.381Z,101302.41
2023-02-15T20:00:26.356Z,101305.78
2023-02-15T20:02:54.348Z,101302.06
2023-02-15T20:05:22.378Z,101293.25
2023-02-15T20:07:52.012Z,101297.25
2023-02-15T20:10:25.028Z,101300.97
2023-02-15T20:12:52.754Z,101306.00
2023-02-15T20:15:23.878Z,101304.91
2023-02-15T20:17:51.361Z,101298.13
2023-02-15T20:20:19.956Z,101299.00
2023-02-15T20:22:49.497Z,101296.50
2023-02-15T20:25:21.109Z,101305.59
2023-02-15T20:27:48.750Z,101307.06
2023-02-15T20:30:21.911Z,101300.59
2023-02-15T20:32:50.075Z,101297.28
2023-02-15T20:35:22.732Z,101292.47
2023-02-15T20:37:55.647Z,101292.50
2023-02-15T20:40:24.408Z,101290.66
2023-02-15T20:42:52.178Z,101294.16
2023-02-15T20:45:22.687Z,101290.50
2023-02-15T20:47:51.173Z,101286.72
2023-02-15T20:50:24.791Z,101292.44
2023-02-15T20:52:54.063Z,101294.56
2023-02-15T20:55:26.841Z,101289.94
2023-02-15T20:57:54.105Z,101293.72
2023-02-15T21:00:24.290Z,101294.19
2023-02-15T21:02:54.645Z,101295.00
2023-02-15T21:05:30.742Z,101299.72
2023-02-15T21:07:59.627Z,101294.78
2023-02-15T21:10:32.240Z,101288.94
2023-02-15T21:13:00.258Z,101289.78
2023-02-15T21:15:30.852Z,101279.69
2023-02-15T21:18:00.404Z,101292.09
2023-02-15T21:20:29.652Z,101284.84
2023-02-15T21:22:59.671Z,101288.94
2023-02-15T21:25:33.402Z,101288.41
2023-02-15T21:28:01.122Z,101287.41
2023-02-15T21:30:28.855Z,101279.53
2023-02-15T21:32:56.236Z,101292.78
2023-02-15T21:35:24.107Z,101288.47
2023-02-15T21:37:52.775Z,101277.94
2023-02-15T21:40:27.282Z,101283.63
2023-02-15T21:43:13.735Z,101282.34
2023-02-15T21:46:00.017Z,101294.13
2023-02-15T21:48:28.157Z,101287.34
2023-02-15T21:51:14.331Z,101289.12
2023-02-15T21:53:45.807Z,101293.03
2023-02-15T21:56:19.099Z,101284.13
2023-02-15T21:58:47.328Z,101285.44
2023-02-15T22:01:22.283Z,101282.62
2023-02-15T22:03:50.563Z,101283.53
2023-02-15T22:06:18.394Z,101287.97
2023-02-15T22:08:47.916Z,101280.87
2023-02-15T22:11:18.202Z,101282.44
2023-02-15T22:13:47.341Z,101278.75
2023-02-15T22:16:17.533Z,101272.22
2023-02-15T22:18:46.084Z,101279.69
2023-02-15T22:21:13.517Z,101279.91
2023-02-15T22:23:40.858Z,101281.59
2023-02-15T22:26:13.162Z,101278.38
2023-02-15T22:28:41.174Z,101281.84
2023-02-15T22:31:14.874Z,101279.78
2023-02-15T22:33:44.710Z,101284.97
2023-02-15T22:36:27.252Z,101289.84
2023-02-15T22:38:55.291Z,101296.75
2023-02-15T22:41:25.856Z,101291.09
2023-02-15T22:43:53.230Z,101295.22
2023-02-15T22:46:23.281Z,101294.28
2023-02-15T22:48:51.867Z,101292.94
2023-02-15T22:51:21.934Z,101295.88
2023-02-15T22:53:51.747Z,101287.66
2023-02-15T22:56:26.695Z,101293.25
2023-02-15T22:59:01.349Z,101289.72
2023-02-15T23:01:34.447Z,101285.72
2023-02-15T23:04:03.786Z,101284.56
2023-02-15T23:06:32.500Z,101284.56
2023-02-15T23:09:00.847Z,101280.72
2023-02-15T23:11:28.557Z,101283.38
2023-02-15T23:13:56.266Z,101282.62
2023-02-15T23:16:23.763Z,101281.84
2023-02-15T23:18:51.440Z,101280.00
2023-02-15T23:21:33.865Z,101278.75
2023-02-15T23:24:22.474Z,101279.25
2023-02-15T23:26:50.867Z,101284.25
2023-02-15T23:29:20.943Z,101277.34
2023-02-15T23:31:50.364Z,101280.72
2023-02-15T23:34:31.617Z,101284.03
2023-02-15T23:36:59.031Z,101279.16
2023-02-15T23:39:46.201Z,101280.41
2023-02-15T23:42:20.119Z,101278.84
2023-02-15T23:44:48.720Z,101274.19
2023-02-15T23:47:45.291Z,101272.91
2023-02-15T23:50:23.938Z,101267.75
2023-02-15T23:52:51.704Z,101261.75
2023-02-15T23:55:20.208Z,101258.41
2023-02-15T23:57:48.092Z,101263.59
